createdAt,value
2023-09-06T00:01:13.399Z,1.98
2023-09-06T00:04:16.811Z,2.25
2023-09-06T00:07:19.836Z,2.20
2023-09-06T00:10:22.824Z,2.60
2023-09-06T00:13:25.753Z,2.00
2023-09-06T00:16:28.753Z,2.20
2023-09-06T00:19:31.742Z,2.08
2023-09-06T00:22:34.675Z,2.13
2023-09-06T00:25:38.091Z,2.53
2023-09-06T00:28:40.983Z,2.40
2023-09-06T00:31:44.831Z,2.50
2023-09-06T00:34:47.995Z,2.65
2023-09-06T00:37:51.551Z,2.60
2023-09-06T00:40:54.970Z,2.72
2023-09-06T00:43:57.923Z,2.58
2023-09-06T00:47:01.594Z,2.20
2023-09-06T00:50:05.525Z,1.90
2023-09-06T00:53:09.226Z,2.30
2023-09-06T00:56:12.401Z,2.20
2023-09-06T00:59:15.718Z,2.30
2023-09-06T01:02:18.799Z,2.25
2023-09-06T01:05:22.150Z,2.60
2023-09-06T01:08:29.298Z,2.40
2023-09-06T01:11:33.621Z,2.60
2023-09-06T01:14:39.483Z,2.50
2023-09-06T01:17:44.419Z,2.50
2023-09-06T01:20:58.202Z,2.50
2023-09-06T01:24:03.620Z,2.17
2023-09-06T01:27:06.753Z,2.63
2023-09-06T01:30:09.986Z,2.42
2023-09-06T01:33:15.011Z,2.45
2023-09-06T01:36:17.962Z,2.22
2023-09-06T01:39:21.224Z,2.37
2023-09-06T01:42:24.155Z,2.30
2023-09-06T01:45:30.461Z,2.60
2023-09-06T01:48:34.023Z,2.20
2023-09-06T01:51:37.271Z,2.50
2023-09-06T01:54:40.321Z,2.50
2023-09-06T01:57:43.354Z,2.25
2023-09-06T02:00:47.207Z,2.40
2023-09-06T02:03:50.527Z,2.53
2023-09-06T02:06:53.910Z,2.63
2023-09-06T02:09:57.106Z,2.30
2023-09-06T02:13:00.874Z,2.60
2023-09-06T02:16:04.317Z,3.63
2023-09-06T02:19:07.814Z,2.80
2023-09-06T02:22:12.426Z,3.28
2023-09-06T02:25:16.440Z,2.80
2023-09-06T02:28:20.117Z,2.63
2023-09-06T02:31:23.213Z,3.00
2023-09-06T02:34:26.217Z,2.72
2023-09-06T02:37:29.261Z,2.80
2023-09-06T02:40:32.297Z,3.00
2023-09-06T02:43:36.401Z,3.03
2023-09-06T02:46:39.683Z,3.00
2023-09-06T02:49:49.143Z,2.90
2023-09-06T02:52:55.046Z,3.30
2023-09-06T02:55:58.369Z,3.20
2023-09-06T02:59:01.542Z,3.28
2023-09-06T03:02:06.838Z,3.40
2023-09-06T03:05:10.723Z,2.95
2023-09-06T03:08:14.445Z,3.38
2023-09-06T03:11:17.707Z,3.07
2023-09-06T03:14:31.372Z,3.30
2023-09-06T03:17:37.196Z,3.03
2023-09-06T03:20:45.540Z,3.15
2023-09-06T03:23:56.220Z,3.50
2023-09-06T03:26:59.431Z,2.97
2023-09-06T03:30:08.249Z,2.88
2023-09-06T03:33:11.517Z,3.65
2023-09-06T03:36:16.086Z,3.42
2023-09-06T03:39:20.431Z,3.47
2023-09-06T03:42:24.300Z,3.13
2023-09-06T03:45:27.785Z,3.13
2023-09-06T03:48:31.703Z,3.22
2023-09-06T03:51:36.988Z,3.30
2023-09-06T03:54:40.144Z,3.42
2023-09-06T03:57:43.216Z,4.00
2023-09-06T04:00:48.905Z,3.70
2023-09-06T04:04:02.301Z,4.10
2023-09-06T04:07:07.337Z,3.70
2023-09-06T04:10:17.633Z,4.13
2023-09-06T04:13:21.091Z,3.77
2023-09-06T04:16:25.000Z,4.00
2023-09-06T04:19:28.434Z,3.95
2023-09-06T04:22:34.771Z,3.90
2023-09-06T04:25:43.134Z,4.07
2023-09-06T04:28:49.590Z,3.90
2023-09-06T04:31:55.471Z,3.92
2023-09-06T04:35:00.149Z,4.88
2023-09-06T04:38:03.933Z,4.10
2023-09-06T04:41:07.190Z,4.05
2023-09-06T04:44:25.803Z,3.87
2023-09-06T04:47:31.870Z,3.75
2023-09-06T04:50:35.106Z,3.95
2023-09-06T04:53:38.231Z,3.75
2023-09-06T04:56:42.065Z,3.92
2023-09-06T04:59:45.942Z,3.60
2023-09-06T05:02:49.465Z,3.40
2023-09-06T05:05:52.554Z,3.60
2023-09-06T05:08:56.009Z,3.90
2023-09-06T05:12:00.968Z,4.65
2023-09-06T05:15:04.625Z,4.13
2023-09-06T05:18:11.313Z,3.53
2023-09-06T05:21:15.698Z,4.03
2023-09-06T05:24:20.255Z,3.70
2023-09-06T05:27:23.321Z,3.92
2023-09-06T05:30:26.978Z,4.10
2023-09-06T05:33:30.446Z,3.72
2023-09-06T05:36:35.866Z,3.83
2023-09-06T05:39:38.955Z,4.32
2023-09-06T05:42:43.251Z,4.38
2023-09-06T05:45:46.426Z,4.07
2023-09-06T05:48:50.965Z,4.10
2023-09-06T05:51:55.160Z,3.90
2023-09-06T05:54:58.421Z,3.70
2023-09-06T05:58:01.549Z,3.78
2023-09-06T06:01:04.659Z,4.07
2023-09-06T06:04:08.018Z,3.72
2023-09-06T06:07:10.998Z,4.10
2023-09-06T06:10:14.792Z,3.65
2023-09-06T06:13:17.814Z,4.00
2023-09-06T06:16:22.268Z,3.80
2023-09-06T06:19:25.444Z,3.95
2023-09-06T06:22:28.539Z,3.90
2023-09-06T06:25:31.628Z,3.90
2023-09-06T06:28:37.695Z,3.90
2023-09-06T06:31:40.985Z,3.70
2023-09-06T06:34:45.188Z,3.67
2023-09-06T06:37:52.123Z,3.90
2023-09-06T06:40:55.193Z,4.05
2023-09-06T06:43:58.281Z,4.22
2023-09-06T06:47:02.269Z,3.80
2023-09-06T06:50:07.663Z,4.20
2023-09-06T06:53:10.914Z,3.90
2023-09-06T06:56:14.075Z,4.13
2023-09-06T06:59:18.511Z,4.28
2023-09-06T07:02:21.658Z,4.30
2023-09-06T07:05:24.694Z,4.38
2023-09-06T07:08:28.825Z,4.32
2023-09-06T07:11:35.049Z,4.40
2023-09-06T07:14:38.027Z,3.90
2023-09-06T07:17:41.264Z,4.50
2023-09-06T07:20:44.630Z,3.72
2023-09-06T07:23:47.735Z,3.90
2023-09-06T07:26:50.768Z,4.07
2023-09-06T07:29:53.835Z,4.07
2023-09-06T07:32:59.600Z,3.63
2023-09-06T07:36:02.764Z,4.18
2023-09-06T07:39:05.770Z,3.83
2023-09-06T07:42:08.865Z,3.92
2023-09-06T07:45:12.047Z,4.28
2023-09-06T07:48:21.688Z,4.00
2023-09-06T07:51:25.093Z,3.53
2023-09-06T07:54:28.129Z,4.07
2023-09-06T07:57:31.157Z,3.85
2023-09-06T08:00:37.402Z,4.22
2023-09-06T08:03:40.629Z,3.80
2023-09-06T08:06:44.394Z,3.30
2023-09-06T08:09:47.776Z,3.90
2023-09-06T08:12:50.884Z,3.75
2023-09-06T08:15:53.887Z,3.78
2023-09-06T08:18:57.505Z,4.07
2023-09-06T08:22:01.481Z,3.90
2023-09-06T08:25:04.665Z,4.13
2023-09-06T08:28:08.173Z,4.25
2023-09-06T08:31:13.722Z,4.10
2023-09-06T08:34:20.656Z,3.77
2023-09-06T08:37:24.364Z,4.50
2023-09-06T08:40:27.767Z,3.70
2023-09-06T08:43:35.952Z,4.00
2023-09-06T08:46:42.941Z,4.30
2023-09-06T08:49:48.016Z,4.63
2023-09-06T08:52:52.801Z,4.28
2023-09-06T08:55:56.080Z,4.20
2023-09-06T08:59:00.086Z,4.22
2023-09-06T09:02:03.143Z,4.32
2023-09-06T09:05:19.762Z,4.07
2023-09-06T09:08:27.220Z,4.55
2023-09-06T09:11:30.582Z,4.30
2023-09-06T09:14:36.243Z,5.10
2023-09-06T09:17:57.122Z,4.43
2023-09-06T09:21:04.670Z,4.47
2023-09-06T09:24:08.094Z,5.25
2023-09-06T09:27:11.416Z,4.78
2023-09-06T09:30:15.831Z,4.30
2023-09-06T09:33:20.018Z,4.15
2023-09-06T09:36:23.322Z,4.47
2023-09-06T09:39:29.621Z,4.13
2023-09-06T09:42:32.947Z,4.32
2023-09-06T09:45:45.095Z,4.30
2023-09-06T09:48:48.479Z,3.83
2023-09-06T09:51:51.931Z,3.90
2023-09-06T09:54:57.764Z,3.60
2023-09-06T09:58:06.082Z,3.78
2023-09-06T10:01:10.278Z,3.38
2023-09-06T10:04:16.152Z,3.42
2023-09-06T10:07:22.036Z,3.53
2023-09-06T10:10:28.739Z,3.83
2023-09-06T10:13:33.026Z,3.40
2023-09-06T10:16:36.828Z,3.15
2023-09-06T10:19:53.677Z,3.90
2023-09-06T10:23:00.301Z,3.50
2023-09-06T10:26:04.795Z,3.45
2023-09-06T10:29:13.224Z,3.75
2023-09-06T10:32:16.745Z,3.47
2023-09-06T10:35:28.453Z,3.72
2023-09-06T10:38:32.107Z,3.40
2023-09-06T10:41:35.948Z,3.70
2023-09-06T10:44:57.565Z,3.38
2023-09-06T10:48:12.143Z,3.47
2023-09-06T10:51:15.735Z,3.78
2023-09-06T10:54:20.268Z,3.10
2023-09-06T10:57:24.607Z,3.33
2023-09-06T11:00:32.146Z,3.55
2023-09-06T11:03:35.652Z,3.20
2023-09-06T11:06:53.000Z,3.10
2023-09-06T11:09:56.578Z,3.20
2023-09-06T11:13:12.011Z,3.20
2023-09-06T11:16:18.339Z,3.10
2023-09-06T11:19:31.400Z,3.63
2023-09-06T11:22:35.714Z,3.33
2023-09-06T11:25:39.547Z,3.20
2023-09-06T11:28:44.946Z,3.20
2023-09-06T11:31:54.095Z,3.28
2023-09-06T11:34:59.030Z,3.30
2023-09-06T11:38:04.217Z,2.90
2023-09-06T11:41:10.083Z,2.90
2023-09-06T11:44:16.250Z,3.10
2023-09-06T11:47:21.064Z,3.08
2023-09-06T11:50:25.498Z,3.47
2023-09-06T11:53:28.962Z,3.40
2023-09-06T11:56:37.024Z,2.90
2023-09-06T11:59:42.228Z,3.20
2023-09-06T12:02:52.261Z,3.33
2023-09-06T12:05:57.523Z,3.10
2023-09-06T12:09:00.993Z,3.25
2023-09-06T12:12:08.033Z,3.43
2023-09-06T12:15:21.520Z,3.20
2023-09-06T12:18:29.766Z,3.10
2023-09-06T12:21:33.643Z,3.17
2023-09-06T12:24:37.126Z,3.50
2023-09-06T12:27:40.203Z,3.13
2023-09-06T12:30:43.602Z,3.17
2023-09-06T12:33:49.385Z,3.17
2023-09-06T12:36:53.042Z,3.25
2023-09-06T12:39:56.284Z,3.13
2023-09-06T12:43:01.199Z,3.10
2023-09-06T12:46:08.083Z,3.00
